sensor_id;sensor_type;location;lat;lon;timestamp;pressure;altitude;pressure_sealevel;temperature;humidity
60319;BME280;46163;52.306;5.634;2022-11-15T00:00:48;100710.56;;;16.98;58.49
60319;BME280;46163;52.306;5.634;2022-11-15T00:03:21;100714.88;;;16.99;58.54
60319;BME280;46163;52.306;5.634;2022-11-15T00:05:48;100715.13;;;16.97;58.53
60319;BME280;46163;52.306;5.634;2022-11-15T00:08:13;100698.44;;;16.95;58.54
60319;BME280;46163;52.306;5.634;2022-11-15T00:10:39;100689.56;;;16.94;58.60
60319;BME280;46163;52.306;5.634;2022-11-15T00:13:07;100694.94;;;16.94;58.34
60319;BME280;46163;52.306;5.634;2022-11-15T00:15:35;100690.38;;;16.95;58.49
60319;BME280;46163;52.306;5.634;2022-11-15T00:18:01;100695.97;;;16.93;58.37
60319;BME280;46163;52.306;5.634;2022-11-15T00:20:27;100701.34;;;16.93;58.43
60319;BME280;46163;52.306;5.634;2022-11-15T00:22:53;100702.41;;;16.92;58.39
60319;BME280;46163;52.306;5.634;2022-11-15T00:25:18;100705.34;;;16.91;58.46
60319;BME280;46163;52.306;5.634;2022-11-15T00:27:43;100696.72;;;16.89;58.45
60319;BME280;46163;52.306;5.634;2022-11-15T00:30:10;100693.47;;;16.87;58.52
60319;BME280;46163;52.306;5.634;2022-11-15T00:32:36;100700.13;;;16.84;58.57
60319;BME280;46163;52.306;5.634;2022-11-15T00:35:05;100692.88;;;16.85;58.50
60319;BME280;46163;52.306;5.634;2022-11-15T00:37:31;100696.41;;;16.85;58.52
60319;BME280;46163;52.306;5.634;2022-11-15T00:39:56;100680.50;;;16.84;58.43
60319;BME280;46163;52.306;5.634;2022-11-15T00:42:22;100676.75;;;16.85;58.42
60319;BME280;46163;52.306;5.634;2022-11-15T00:44:47;100680.75;;;16.82;58.46
60319;BME280;46163;52.306;5.634;2022-11-15T00:47:13;100682.63;;;16.82;58.36
60319;BME280;46163;52.306;5.634;2022-11-15T00:49:39;100687.44;;;16.80;58.24
60319;BME280;46163;52.306;5.634;2022-11-15T00:52:05;100683.94;;;16.79;58.53
60319;BME280;46163;52.306;5.634;2022-11-15T00:54:30;100680.44;;;16.79;58.37
60319;BME280;46163;52.306;5.634;2022-11-15T00:56:56;100674.25;;;16.78;58.35
60319;BME280;46163;52.306;5.634;2022-11-15T00:59:21;100681.25;;;16.79;58.49
60319;BME280;46163;52.306;5.634;2022-11-15T01:01:47;100673.66;;;16.76;58.12
60319;BME280;46163;52.306;5.634;2022-11-15T01:04:13;100680.09;;;16.75;58.51
60319;BME280;46163;52.306;5.634;2022-11-15T01:06:39;100685.47;;;16.75;58.38
60319;BME280;46163;52.306;5.634;2022-11-15T01:09:05;100677.66;;;16.74;58.51
60319;BME280;46163;52.306;5.634;2022-11-15T01:11:31;100662.59;;;16.73;58.28
60319;BME280;46163;52.306;5.634;2022-11-15T01:13:56;100666.09;;;16.73;58.40
60319;BME280;46163;52.306;5.634;2022-11-15T01:16:21;100660.41;;;16.70;58.59
60319;BME280;46163;52.306;5.634;2022-11-15T01:18:47;100657.09;;;16.67;58.39
60319;BME280;46163;52.306;5.634;2022-11-15T01:21:14;100663.31;;;16.68;58.46
60319;BME280;46163;52.306;5.634;2022-11-15T01:23:41;100660.63;;;16.68;57.95
60319;BME280;46163;52.306;5.634;2022-11-15T01:26:10;100657.94;;;16.68;58.41
60319;BME280;46163;52.306;5.634;2022-11-15T01:28:38;100657.09;;;16.67;58.46
60319;BME280;46163;52.306;5.634;2022-11-15T01:31:07;100648.75;;;16.64;58.42
60319;BME280;46163;52.306;5.634;2022-11-15T01:33:34;100645.00;;;16.65;58.43
60319;BME280;46163;52.306;5.634;2022-11-15T01:36:05;100641.75;;;16.63;58.38
60319;BME280;46163;52.306;5.634;2022-11-15T01:38:32;100637.19;;;16.63;58.28
60319;BME280;46163;52.306;5.634;2022-11-15T01:40:58;100637.44;;;16.62;58.23
60319;BME280;46163;52.306;5.634;2022-11-15T01:43:32;100633.13;;;16.61;58.49
60319;BME280;46163;52.306;5.634;2022-11-15T01:46:06;100631.72;;;16.58;58.54
60319;BME280;46163;52.306;5.634;2022-11-15T01:48:33;100634.66;;;16.57;58.61
60319;BME280;46163;52.306;5.634;2022-11-15T01:51:05;100626.59;;;16.57;58.43
60319;BME280;46163;52.306;5.634;2022-11-15T01:53:33;100628.16;;;16.53;58.39
60319;BME280;46163;52.306;5.634;2022-11-15T01:56:02;100643.78;;;16.56;58.61
60319;BME280;46163;52.306;5.634;2022-11-15T01:58:29;100628.97;;;16.53;58.30
60319;BME280;46163;52.306;5.634;2022-11-15T02:00:57;100640.28;;;16.55;58.35
60319;BME280;46163;52.306;5.634;2022-11-15T02:03:26;100626.75;;;16.50;58.65
60319;BME280;46163;52.306;5.634;2022-11-15T02:05:57;100623.59;;;16.53;58.48
60319;BME280;46163;52.306;5.634;2022-11-15T02:08:23;100620.09;;;16.53;58.27
60319;BME280;46163;52.306;5.634;2022-11-15T02:10:48;100619.53;;;16.51;58.48
60319;BME280;46163;52.306;5.634;2022-11-15T02:13:15;100612.50;;;16.50;58.58
60319;BME280;46163;52.306;5.634;2022-11-15T02:15:58;100607.13;;;16.50;58.44
60319;BME280;46163;52.306;5.634;2022-11-15T02:18:42;100596.88;;;16.47;58.47
60319;BME280;46163;52.306;5.634;2022-11-15T02:33:01;100596.31;;;16.45;58.76
60319;BME280;46163;52.306;5.634;2022-11-15T02:37:57;100590.16;;;16.44;58.43
60319;BME280;46163;52.306;5.634;2022-11-15T02:40:42;100589.34;;;16.44;58.39
60319;BME280;46163;52.306;5.634;2022-11-15T02:43:18;100570.13;;;16.35;58.45
60319;BME280;46163;52.306;5.634;2022-11-15T02:46:13;100582.34;;;16.43;58.52
60319;BME280;46163;52.306;5.634;2022-11-15T02:48:41;100578.00;;;16.42;58.33
60319;BME280;46163;52.306;5.634;2022-11-15T02:51:08;100578.00;;;16.42;58.58
60319;BME280;46163;52.306;5.634;2022-11-15T02:53:35;100584.44;;;16.40;58.41
60319;BME280;46163;52.306;5.634;2022-11-15T02:56:01;100574.75;;;16.39;58.57
60319;BME280;46163;52.306;5.634;2022-11-15T03:01:45;100559.69;;;16.38;58.46
60319;BME280;46163;52.306;5.634;2022-11-15T03:04:44;100554.56;;;16.37;58.46
60319;BME280;46163;52.306;5.634;2022-11-15T03:12:40;100550.28;;;16.36;58.51
60319;BME280;46163;52.306;5.634;2022-11-15T03:17:41;100539.78;;;16.34;58.37
60319;BME280;46163;52.306;5.634;2022-11-15T03:20:13;100538.16;;;16.33;58.56
60319;BME280;46163;52.306;5.634;2022-11-15T03:22:44;100543.53;;;16.33;58.56
60319;BME280;46163;52.306;5.634;2022-11-15T03:25:18;100537.31;;;16.33;58.44
60319;BME280;46163;52.306;5.634;2022-11-15T03:27:49;100544.34;;;16.34;58.38
60319;BME280;46163;52.306;5.634;2022-11-15T03:30:17;100548.91;;;16.33;58.40
60319;BME280;46163;52.306;5.634;2022-11-15T03:32:47;100555.28;;;16.32;58.47
60319;BME280;46163;52.306;5.634;2022-11-15T03:35:18;100551.00;;;16.31;58.58
60319;BME280;46163;52.306;5.634;2022-11-15T03:37:50;100550.19;;;16.31;58.55
60319;BME280;46163;52.306;5.634;2022-11-15T03:40:17;100555.81;;;16.29;58.43
60319;BME280;46163;52.306;5.634;2022-11-15T03:45:22;100553.63;;;16.26;58.55
60319;BME280;46163;52.306;5.634;2022-11-15T03:48:18;100559.78;;;16.27;58.41
60319;BME280;46163;52.306;5.634;2022-11-15T03:50:49;100554.19;;;16.28;58.58
60319;BME280;46163;52.306;5.634;2022-11-15T03:53:16;100550.94;;;16.26;58.49
60319;BME280;46163;52.306;5.634;2022-11-15T03:55:42;100550.13;;;16.26;58.29
60319;BME280;46163;52.306;5.634;2022-11-15T03:58:08;100554.69;;;16.25;58.54
60319;BME280;46163;52.306;5.634;2022-11-15T04:00:33;100556.31;;;16.26;58.61
60319;BME280;46163;52.306;5.634;2022-11-15T04:02:59;100549.78;;;16.22;58.41
60319;BME280;46163;52.306;5.634;2022-11-15T04:05:24;100557.34;;;16.25;58.53
60319;BME280;46163;52.306;5.634;2022-11-15T04:07:50;100548.72;;;16.23;58.62
60319;BME280;46163;52.306;5.634;2022-11-15T04:10:15;100545.47;;;16.21;58.50
60319;BME280;46163;52.306;5.634;2022-11-15T04:12:43;100554.34;;;16.22;58.63
60319;BME280;46163;52.306;5.634;2022-11-15T04:15:15;100552.47;;;16.22;58.58
60319;BME280;46163;52.306;5.634;2022-11-15T04:17:45;100550.59;;;16.23;58.59
60319;BME280;46163;52.306;5.634;2022-11-15T04:20:19;100555.16;;;16.22;58.60
60319;BME280;46163;52.306;5.634;2022-11-15T04:23:06;100548.72;;;16.23;58.73
60319;BME280;46163;52.306;5.634;2022-11-15T04:25:52;100532.03;;;16.21;58.61
60319;BME280;46163;52.306;5.634;2022-11-15T04:28:18;100546.94;;;16.29;58.53
60319;BME280;46163;52.306;5.634;2022-11-15T04:30:44;100542.13;;;16.31;58.61
60319;BME280;46163;52.306;5.634;2022-11-15T04:33:10;100537.00;;;16.29;58.57
60319;BME280;46163;52.306;5.634;2022-11-15T04:35:36;100549.94;;;16.32;58.51
60319;BME280;46163;52.306;5.634;2022-11-15T04:38:06;100532.94;;;16.27;58.71
60319;BME280;46163;52.306;5.634;2022-11-15T04:40:31;100551.63;;;16.38;58.62
60319;BME280;46163;52.306;5.634;2022-11-15T04:42:57;100550.31;;;16.41;58.53
60319;BME280;46163;52.306;5.634;2022-11-15T04:45:22;100541.53;;;16.46;58.51
60319;BME280;46163;52.306;5.634;2022-11-15T04:47:49;100535.19;;;16.52;58.35
60319;BME280;46163;52.306;5.634;2022-11-15T04:50:15;100537.47;;;16.60;58.41
60319;BME280;46163;52.306;5.634;2022-11-15T04:52:43;100537.13;;;16.73;57.84
60319;BME280;46163;52.306;5.634;2022-11-15T04:55:10;100536.69;;;16.81;57.60
60319;BME280;46163;52.306;5.634;2022-11-15T04:57:37;100530.88;;;16.89;57.47
60319;BME280;46163;52.306;5.634;2022-11-15T05:00:05;100534.75;;;16.99;57.19
60319;BME280;46163;52.306;5.634;2022-11-15T05:02:31;100526.25;;;17.07;57.02
60319;BME280;46163;52.306;5.634;2022-11-15T05:05:16;100526.06;;;17.13;56.99
60319;BME280;46163;52.306;5.634;2022-11-15T05:07:42;100528.56;;;17.20;56.89
60319;BME280;46163;52.306;5.634;2022-11-15T05:10:08;100527.28;;;17.28;56.74
60319;BME280;46163;52.306;5.634;2022-11-15T05:12:34;100529.25;;;17.32;56.64
60319;BME280;46163;52.306;5.634;2022-11-15T05:14:59;100530.34;;;17.36;56.60
60319;BME280;46163;52.306;5.634;2022-11-15T05:17:25;100536.34;;;17.43;56.38
60319;BME280;46163;52.306;5.634;2022-11-15T05:19:51;100526.13;;;17.45;56.53
60319;BME280;46163;52.306;5.634;2022-11-15T05:22:18;100531.03;;;17.48;56.47
60319;BME280;46163;52.306;5.634;2022-11-15T05:24:43;100528.91;;;17.50;56.15
60319;BME280;46163;52.306;5.634;2022-11-15T05:27:09;100539.19;;;17.59;56.04
60319;BME280;46163;52.306;5.634;2022-11-15T05:29:34;100538.19;;;17.65;55.83
60319;BME280;46163;52.306;5.634;2022-11-15T05:32:00;100541.19;;;17.68;55.97
60319;BME280;46163;52.306;5.634;2022-11-15T05:34:26;100548.28;;;17.74;55.67
60319;BME280;46163;52.306;5.634;2022-11-15T05:36:52;100535.91;;;17.78;55.68
60319;BME280;46163;52.306;5.634;2022-11-15T05:39:18;100541.66;;;17.87;55.26
60319;BME280;46163;52.306;5.634;2022-11-15T05:41:48;100546.00;;;17.93;55.29
60319;BME280;46163;52.306;5.634;2022-11-15T05:44:17;100542.53;;;17.98;55.28
60319;BME280;46163;52.306;5.634;2022-11-15T05:46:44;100540.72;;;18.03;55.25
60319;BME280;46163;52.306;5.634;2022-11-15T05:49:13;100548.84;;;18.08;55.15
60319;BME280;46163;52.306;5.634;2022-11-15T05:51:41;100543.75;;;18.12;54.81
60319;BME280;46163;52.306;5.634;2022-11-15T05:54:09;100544.81;;;18.11;55.13
60319;BME280;46163;52.306;5.634;2022-11-15T05:56:35;100551.88;;;18.17;54.71
60319;BME280;46163;52.306;5.634;2022-11-15T05:59:01;100544.63;;;18.23;54.92
60319;BME280;46163;52.306;5.634;2022-11-15T06:01:27;100550.06;;;18.28;54.56
60319;BME280;46163;52.306;5.634;2022-11-15T06:03:53;100553.84;;;18.32;54.53
60319;BME280;46163;52.306;5.634;2022-11-15T06:06:18;100554.41;;;18.34;54.71
60319;BME280;46163;52.306;5.634;2022-11-15T06:08:44;100561.97;;;18.37;54.69
60319;BME280;46163;52.306;5.634;2022-11-15T06:11:09;100570.59;;;18.39;54.54
60319;BME280;46163;52.306;5.634;2022-11-15T06:13:35;100550.06;;;18.33;54.70
60319;BME280;46163;52.306;5.634;2022-11-15T06:16:01;100569.84;;;18.44;54.52
60319;BME280;46163;52.306;5.634;2022-11-15T06:18:27;100570.91;;;18.43;54.72
60319;BME280;46163;52.306;5.634;2022-11-15T06:20:52;100570.09;;;18.42;54.63
60319;BME280;46163;52.306;5.634;2022-11-15T06:23:18;100571.16;;;18.41;54.71
60319;BME280;46163;52.306;5.634;2022-11-15T06:25:44;100581.69;;;18.43;54.69
60319;BME280;46163;52.306;5.634;2022-11-15T06:28:09;100574.41;;;18.43;54.57
60319;BME280;46163;52.306;5.634;2022-11-15T06:30:35;100589.00;;;18.47;54.60
60319;BME280;46163;52.306;5.634;2022-11-15T06:33:03;100578.25;;;18.52;54.57
60319;BME280;46163;52.306;5.634;2022-11-15T06:35:30;100584.47;;;18.58;54.53
60319;BME280;46163;52.306;5.634;2022-11-15T06:38:05;100586.13;;;18.64;54.64
60319;BME280;46163;52.306;5.634;2022-11-15T06:40:36;100579.44;;;18.67;54.63
60319;BME280;46163;52.306;5.634;2022-11-15T06:43:03;100581.06;;;18.68;54.86
60319;BME280;46163;52.306;5.634;2022-11-15T06:45:30;100589.72;;;18.70;54.62
60319;BME280;46163;52.306;5.634;2022-11-15T06:47:56;100590.53;;;18.70;54.74
60319;BME280;46163;52.306;5.634;2022-11-15T06:50:22;100590.00;;;18.73;55.17
60319;BME280;46163;52.306;5.634;2022-11-15T06:52:48;100591.63;;;18.74;54.82
60319;BME280;46163;52.306;5.634;2022-11-15T06:55:14;100591.66;;;18.79;55.20
60319;BME280;46163;52.306;5.634;2022-11-15T06:57:50;100584.66;;;18.83;55.28
60319;BME280;46163;52.306;5.634;2022-11-15T07:00:17;100592.78;;;18.88;55.29
60319;BME280;46163;52.306;5.634;2022-11-15T07:02:43;100586.59;;;18.93;55.21
60319;BME280;46163;52.306;5.634;2022-11-15T07:05:10;100582.59;;;18.96;55.04
60319;BME280;46163;52.306;5.634;2022-11-15T07:07:35;100584.47;;;18.95;55.17
60319;BME280;46163;52.306;5.634;2022-11-15T07:10:01;100585.00;;;18.97;55.10
60319;BME280;46163;52.306;5.634;2022-11-15T07:12:26;100596.88;;;18.96;55.10
60319;BME280;46163;52.306;5.634;2022-11-15T07:14:52;100594.72;;;18.98;55.01
60319;BME280;46163;52.306;5.634;2022-11-15T07:17:17;100591.75;;;19.00;55.22
60319;BME280;46163;52.306;5.634;2022-11-15T07:19:44;100602.28;;;19.01;55.19
60319;BME280;46163;52.306;5.634;2022-11-15T07:22:09;100605.56;;;19.03;55.06
60319;BME280;46163;52.306;5.634;2022-11-15T07:24:34;100606.91;;;19.06;55.10
60319;BME280;46163;52.306;5.634;2022-11-15T07:27:00;100603.94;;;19.07;55.01
60319;BME280;46163;52.306;5.634;2022-11-15T07:29:25;100600.69;;;19.10;54.87
60319;BME280;46163;52.306;5.634;2022-11-15T07:31:51;100599.91;;;19.10;54.88
60319;BME280;46163;52.306;5.634;2022-11-15T07:34:17;100601.28;;;19.12;54.78
60319;BME280;46163;52.306;5.634;2022-11-15T07:36:42;100598.00;;;19.10;54.64
60319;BME280;46163;52.306;5.634;2022-11-15T07:39:08;100608.28;;;19.13;54.69
60319;BME280;46163;52.306;5.634;2022-11-15T07:41:34;100604.50;;;19.14;54.80
60319;BME280;46163;52.306;5.634;2022-11-15T07:44:02;100613.97;;;19.17;54.57
60319;BME280;46163;52.306;5.634;2022-11-15T07:46:27;100612.06;;;19.17;54.67
60319;BME280;46163;52.306;5.634;2022-11-15T07:48:53;100587.53;;;19.14;54.70
60319;BME280;46163;52.306;5.634;2022-11-15T07:51:19;100599.69;;;19.22;54.57
60319;BME280;46163;52.306;5.634;2022-11-15T07:53:45;100598.88;;;19.21;54.49
60319;BME280;46163;52.306;5.634;2022-11-15T07:56:11;100603.75;;;19.24;54.58
60319;BME280;46163;52.306;5.634;2022-11-15T07:58:37;100588.34;;;19.14;54.58
60319;BME280;46163;52.306;5.634;2022-11-15T08:01:07;100605.09;;;19.27;54.38
60319;BME280;46163;52.306;5.634;2022-11-15T08:03:34;100599.69;;;19.27;54.40
60319;BME280;46163;52.306;5.634;2022-11-15T08:06:01;100604.59;;;19.30;54.38
60319;BME280;46163;52.306;5.634;2022-11-15T08:08:27;100598.63;;;19.28;54.62
60319;BME280;46163;52.306;5.634;2022-11-15T08:10:54;100599.72;;;19.32;54.40
60319;BME280;46163;52.306;5.634;2022-11-15T08:13:20;100599.72;;;19.32;54.55
60319;BME280;46163;52.306;5.634;2022-11-15T08:15:46;100588.66;;;19.33;54.30
60319;BME280;46163;52.306;5.634;2022-11-15T08:18:13;100586.50;;;19.35;54.37
60319;BME280;46163;52.306;5.634;2022-11-15T08:20:42;100589.22;;;19.35;54.20
60319;BME280;46163;52.306;5.634;2022-11-15T08:23:10;100592.47;;;19.37;54.27
60319;BME280;46163;52.306;5.634;2022-11-15T08:25:35;100589.50;;;19.39;54.23
60319;BME280;46163;52.306;5.634;2022-11-15T08:28:04;100576.03;;;19.39;54.21
60319;BME280;46163;52.306;5.634;2022-11-15T08:30:35;100582.22;;;19.39;54.19
60319;BME280;46163;52.306;5.634;2022-11-15T08:33:01;100588.13;;;19.36;54.20
60319;BME280;46163;52.306;5.634;2022-11-15T08:35:27;100588.44;;;19.40;54.11
60319;BME280;46163;52.306;5.634;2022-11-15T08:37:54;100584.94;;;19.39;54.04
60319;BME280;46163;52.306;5.634;2022-11-15T08:40:20;100583.03;;;19.40;54.08
60319;BME280;46163;52.306;5.634;2022-11-15T08:42:46;100587.88;;;19.38;54.13
60319;BME280;46163;52.306;5.634;2022-11-15T08:45:11;100581.41;;;19.39;54.19
60319;BME280;46163;52.306;5.634;2022-11-15T08:47:37;100578.72;;;19.39;54.17
60319;BME280;46163;52.306;5.634;2022-11-15T08:50:05;100579.78;;;19.38;54.32
60319;BME280;46163;52.306;5.634;2022-11-15T08:52:33;100580.84;;;19.37;54.22
60319;BME280;46163;52.306;5.634;2022-11-15T08:54:59;100580.03;;;19.36;54.36
60319;BME280;46163;52.306;5.634;2022-11-15T08:57:24;100573.03;;;19.35;54.32
60319;BME280;46163;52.306;5.634;2022-11-15T08:59:50;100573.28;;;19.34;54.45
60319;BME280;46163;52.306;5.634;2022-11-15T09:02:16;100564.94;;;19.30;54.37
60319;BME280;46163;52.306;5.634;2022-11-15T09:04:42;100579.50;;;19.29;54.30
60319;BME280;46163;52.306;5.634;2022-11-15T09:07:09;100563.00;;;19.26;54.56
60319;BME280;46163;52.306;5.634;2022-11-15T09:09:35;100568.94;;;19.28;54.55
60319;BME280;46163;52.306;5.634;2022-11-15T09:12:00;100559.22;;;19.27;54.51
60319;BME280;46163;52.306;5.634;2022-11-15T09:14:26;100554.09;;;19.25;54.64
60319;BME280;46163;52.306;5.634;2022-11-15T09:16:51;100541.97;;;19.23;54.79
60319;BME280;46163;52.306;5.634;2022-11-15T09:19:17;100546.00;;;19.25;54.50
60319;BME280;46163;52.306;5.634;2022-11-15T09:21:43;100554.09;;;19.25;54.72
60319;BME280;46163;52.306;5.634;2022-11-15T09:24:08;100564.34;;;19.28;54.65
60319;BME280;46163;52.306;5.634;2022-11-15T09:26:34;100558.72;;;19.30;54.41
60319;BME280;46163;52.306;5.634;2022-11-15T09:29:00;100556.28;;;19.33;54.58
60319;BME280;46163;52.306;5.634;2022-11-15T09:31:26;100561.41;;;19.35;54.62
60319;BME280;46163;52.306;5.634;2022-11-15T09:33:52;100543.88;;;19.32;54.46
60319;BME280;46163;52.306;5.634;2022-11-15T09:36:17;100549.56;;;19.41;54.37
60319;BME280;46163;52.306;5.634;2022-11-15T09:38:43;100538.78;;;19.41;54.41
60319;BME280;46163;52.306;5.634;2022-11-15T09:49:41;100532.84;;;19.54;54.18
60319;BME280;46163;52.306;5.634;2022-11-15T09:52:10;100535.31;;;19.56;54.19
60319;BME280;46163;52.306;5.634;2022-11-15T09:54:38;100540.47;;;19.57;54.07
60319;BME280;46163;52.306;5.634;2022-11-15T09:57:16;100535.59;;;19.59;54.07
60319;BME280;46163;52.306;5.634;2022-11-15T10:05:32;100520.47;;;19.63;53.86
60319;BME280;46163;52.306;5.634;2022-11-15T10:10:39;100530.75;;;19.61;53.81
60319;BME280;46163;52.306;5.634;2022-11-15T10:13:13;100520.22;;;19.60;53.82
60319;BME280;46163;52.306;5.634;2022-11-15T10:15:43;100526.41;;;19.60;53.87
60319;BME280;46163;52.306;5.634;2022-11-15T10:18:32;100522.09;;;19.59;53.97
60319;BME280;46163;52.306;5.634;2022-11-15T10:21:28;100519.13;;;19.61;53.91
60319;BME280;46163;52.306;5.634;2022-11-15T10:23:55;100512.38;;;19.63;53.81
60319;BME280;46163;52.306;5.634;2022-11-15T10:26:23;100506.97;;;19.63;53.65
60319;BME280;46163;52.306;5.634;2022-11-15T10:28:49;100509.69;;;19.63;53.92
60319;BME280;46163;52.306;5.634;2022-11-15T10:31:26;100502.13;;;19.60;53.87
60319;BME280;46163;52.306;5.634;2022-11-15T10:34:23;100514.00;;;19.59;53.83
60319;BME280;46163;52.306;5.634;2022-11-15T10:36:57;100502.13;;;19.55;53.77
60319;BME280;46163;52.306;5.634;2022-11-15T10:39:23;100503.44;;;19.53;54.12
60319;BME280;46163;52.306;5.634;2022-11-15T10:41:49;100502.09;;;19.50;53.94
60319;BME280;46163;52.306;5.634;2022-11-15T10:44:24;100510.97;;;19.45;54.26
60319;BME280;46163;52.306;5.634;2022-11-15T10:49:21;100489.66;;;19.44;54.13
60319;BME280;46163;52.306;5.634;2022-11-15T10:51:50;100495.88;;;19.44;54.22
60319;BME280;46163;52.306;5.634;2022-11-15T10:54:24;100483.72;;;19.42;54.27
60319;BME280;46163;52.306;5.634;2022-11-15T10:56:53;100480.22;;;19.41;54.25
60319;BME280;46163;52.306;5.634;2022-11-15T10:59:26;100471.03;;;19.42;54.34
60319;BME280;46163;52.306;5.634;2022-11-15T11:01:54;100460.25;;;19.42;54.19
60319;BME280;46163;52.306;5.634;2022-11-15T11:04:20;100460.78;;;19.44;54.18
60319;BME280;46163;52.306;5.634;2022-11-15T11:06:57;100461.06;;;19.48;54.26
60319;BME280;46163;52.306;5.634;2022-11-15T11:09:30;100461.59;;;19.50;54.19
60319;BME280;46163;52.306;5.634;2022-11-15T11:11:56;100448.13;;;19.50;54.32
60319;BME280;46163;52.306;5.634;2022-11-15T11:14:28;100453.78;;;19.54;54.21
60319;BME280;46163;52.306;5.634;2022-11-15T11:22:54;100443.78;;;19.54;54.24
60319;BME280;46163;52.306;5.634;2022-11-15T11:25:49;100447.03;;;19.51;54.25
60319;BME280;46163;52.306;5.634;2022-11-15T11:41:55;100435.16;;;19.47;54.55
60319;BME280;46163;52.306;5.634;2022-11-15T11:44:27;100427.31;;;19.45;54.52
60319;BME280;46163;52.306;5.634;2022-11-15T11:47:00;100433.00;;;19.44;54.58
60319;BME280;46163;52.306;5.634;2022-11-15T11:55:18;100433.81;;;19.39;54.76
60319;BME280;46163;52.306;5.634;2022-11-15T12:00:20;100431.09;;;19.34;54.94
60319;BME280;46163;52.306;5.634;2022-11-15T12:05:39;100422.19;;;19.29;55.11
60319;BME280;46163;52.306;5.634;2022-11-15T12:10:50;100412.47;;;19.28;55.26
60319;BME280;46163;52.306;5.634;2022-11-15T12:13:23;100412.75;;;19.26;55.07
60319;BME280;46163;52.306;5.634;2022-11-15T12:15:59;100408.16;;;19.27;55.16
60319;BME280;46163;52.306;5.634;2022-11-15T12:18:27;100399.53;;;19.25;55.28
60319;BME280;46163;52.306;5.634;2022-11-15T12:21:03;100380.09;;;19.23;55.22
60319;BME280;46163;52.306;5.634;2022-11-15T12:23:39;100379.56;;;19.20;55.34
60319;BME280;46163;52.306;5.634;2022-11-15T12:26:17;100374.41;;;19.19;55.37
60319;BME280;46163;52.306;5.634;2022-11-15T12:29:03;100371.72;;;19.19;55.43
60319;BME280;46163;52.306;5.634;2022-11-15T12:31:47;100364.19;;;19.21;55.50
60319;BME280;46163;52.306;5.634;2022-11-15T12:36:44;100362.31;;;19.22;55.47
60319;BME280;46163;52.306;5.634;2022-11-15T12:39:11;100352.84;;;19.24;55.43
60319;BME280;46163;52.306;5.634;2022-11-15T12:41:41;100353.94;;;19.23;55.49
60319;BME280;46163;52.306;5.634;2022-11-15T12:44:12;100347.72;;;19.23;55.62
60319;BME280;46163;52.306;5.634;2022-11-15T12:49:56;100323.97;;;19.19;55.46
60319;BME280;46163;52.306;5.634;2022-11-15T12:59:54;100326.66;;;19.19;55.52
60319;BME280;46163;52.306;5.634;2022-11-15T13:10:31;100302.69;;;19.08;55.71
60319;BME280;46163;52.306;5.634;2022-11-15T13:13:07;100287.31;;;19.03;55.69
60319;BME280;46163;52.306;5.634;2022-11-15T13:18:36;100296.47;;;19.07;55.73
60319;BME280;46163;52.306;5.634;2022-11-15T13:21:16;100294.31;;;19.04;55.51
60319;BME280;46163;52.306;5.634;2022-11-15T13:24:03;100291.63;;;19.04;55.40
60319;BME280;46163;52.306;5.634;2022-11-15T13:26:29;100291.63;;;19.04;55.33
60319;BME280;46163;52.306;5.634;2022-11-15T13:28:54;100273.84;;;19.03;55.45
60319;BME280;46163;52.306;5.634;2022-11-15T13:32:03;100273.84;;;19.03;55.53
60319;BME280;46163;52.306;5.634;2022-11-15T13:36:49;100257.09;;;19.01;55.66
60319;BME280;46163;52.306;5.634;2022-11-15T13:39:30;100257.66;;;19.03;55.56
60319;BME280;46163;52.306;5.634;2022-11-15T13:41:56;100258.72;;;19.02;55.53
60319;BME280;46163;52.306;5.634;2022-11-15T13:44:28;100250.91;;;19.01;55.79
60319;BME280;46163;52.306;5.634;2022-11-15T13:47:20;100248.75;;;19.03;55.64
60319;BME280;46163;52.306;5.634;2022-11-15T13:49:46;100251.19;;;19.04;55.68
60319;BME280;46163;52.306;5.634;2022-11-15T13:52:14;100249.00;;;19.06;55.79
60319;BME280;46163;52.306;5.634;2022-11-15T13:54:50;100247.94;;;19.07;55.80
60319;BME280;46163;52.306;5.634;2022-11-15T14:02:47;100224.19;;;19.09;55.61
60319;BME280;46163;52.306;5.634;2022-11-15T14:05:20;100225.00;;;19.10;55.67
60319;BME280;46163;52.306;5.634;2022-11-15T14:08:02;100214.75;;;19.07;55.53
60319;BME280;46163;52.306;5.634;2022-11-15T14:10:33;100221.22;;;19.11;55.66
60319;BME280;46163;52.306;5.634;2022-11-15T14:12:59;100216.09;;;19.09;55.47
60319;BME280;46163;52.306;5.634;2022-11-15T14:17:52;100215.00;;;19.10;55.57
60319;BME280;46163;52.306;5.634;2022-11-15T14:20:26;100214.50;;;19.13;55.59
60319;BME280;46163;52.306;5.634;2022-11-15T14:22:55;100203.72;;;19.03;55.59
60319;BME280;46163;52.306;5.634;2022-11-15T14:25:22;100211.25;;;19.11;55.45
60319;BME280;46163;52.306;5.634;2022-11-15T14:30:36;100198.03;;;19.10;55.75
60319;BME280;46163;52.306;5.634;2022-11-15T14:33:21;100197.78;;;19.11;55.86
60319;BME280;46163;52.306;5.634;2022-11-15T14:35:48;100195.09;;;19.11;55.97
60319;BME280;46163;52.306;5.634;2022-11-15T14:38:13;100192.63;;;19.15;55.95
60319;BME280;46163;52.306;5.634;2022-11-15T14:40:40;100182.94;;;19.14;56.10
60319;BME280;46163;52.306;5.634;2022-11-15T14:43:09;100184.25;;;19.16;56.06
60319;BME280;46163;52.306;5.634;2022-11-15T14:45:36;100176.97;;;19.17;56.05
60319;BME280;46163;52.306;5.634;2022-11-15T14:48:02;100157.31;;;19.11;56.00
60319;BME280;46163;52.306;5.634;2022-11-15T14:50:28;100178.59;;;19.18;56.11
60319;BME280;46163;52.306;5.634;2022-11-15T14:52:54;100170.78;;;19.16;56.15
60319;BME280;46163;52.306;5.634;2022-11-15T14:55:30;100167.81;;;19.18;56.22
60319;BME280;46163;52.306;5.634;2022-11-15T14:57:59;100167.00;;;19.17;56.02